Flugplatz Dortmund

Bericht für EDLW

vom 22.09. um 19:50 UTC

Wind 4 kt aus 190°

Sichtweite 10 km oder mehr

schwacher Regen

keine Wolken

Temperatur 13.0°C

Taupunkt 11.0°C

Luftfeuchtigkeit 88%

Luftdruck 1022 hPa

EDLW 221950Z 19004KT 9999 -RA NSC 13/11 Q1022

Prognose für EDLW

vom 22.09. um 17:00 UTC

Zwischen 18:00 UTC und 03:00 UTC

Wind 3 kt aus 320°

Sichtweite 10 km oder mehr

gering bewölkt in 4000 ft


Am 23.09. zwischen 00:00 UTC und 03:00 UTC zeitweise

Sichtweite 4000 m

feuchter Dunst

aufgebrochene Bewölkung in 800 ft


Am 23.09. zwischen 03:00 und 06:00 UTC übergehend zu

Wind 3 kt aus 320°

Sichtweite 1200 m

feuchter Dunst

aufgebrochene Bewölkung in 400 ft


Am 23.09. zwischen 08:00 und 10:00 UTC übergehend zu

Wind 3 kt aus 320°

Sichtweite 10 km oder mehr

feuchter Dunst

aufgelockert bewölkt in 2000 ft

TAF EDLW 221700Z 2218/2318 32003KT 9999 FEW040 TEMPO 2300/2303 4000 BR BKN008 BECMG 2303/2306 1200 BR BKN004 BECMG 2308/2310 9999 SCT020
Impressum